sensor_id;sensor_type;location;lat;lon;timestamp;P1;durP1;ratioP1;P2;durP2;ratioP2
3121;SDS011;1571;52.524;14.104;2023-06-14T00:00:17;2.37;;;2.27;;
3121;SDS011;1571;52.524;14.104;2023-06-14T00:02:45;4.00;;;3.37;;
3121;SDS011;1571;52.524;14.104;2023-06-14T00:05:14;6.10;;;3.50;;
3121;SDS011;1571;52.524;14.104;2023-06-14T00:07:42;3.87;;;2.10;;
3121;SDS011;1571;52.524;14.104;2023-06-14T00:10:11;2.50;;;2.30;;
3121;SDS011;1571;52.524;14.104;2023-06-14T00:12:40;3.37;;;3.17;;
3121;SDS011;1571;52.524;14.104;2023-06-14T00:15:08;6.83;;;3.33;;
3121;SDS011;1571;52.524;14.104;2023-06-14T00:17:39;3.50;;;3.20;;
3121;SDS011;1571;52.524;14.104;2023-06-14T00:20:07;3.30;;;3.00;;
3121;SDS011;1571;52.524;14.104;2023-06-14T00:22:36;4.23;;;2.90;;
3121;SDS011;1571;52.524;14.104;2023-06-14T00:25:06;4.10;;;3.77;;
3121;SDS011;1571;52.524;14.104;2023-06-14T00:27:54;4.27;;;3.90;;
3121;SDS011;1571;52.524;14.104;2023-06-14T00:30:23;3.17;;;2.97;;
3121;SDS011;1571;52.524;14.104;2023-06-14T00:32:53;3.97;;;3.67;;
3121;SDS011;1571;52.524;14.104;2023-06-14T00:35:24;3.60;;;3.30;;
3121;SDS011;1571;52.524;14.104;2023-06-14T00:37:53;4.23;;;3.93;;
3121;SDS011;1571;52.524;14.104;2023-06-14T00:40:21;4.53;;;4.13;;
3121;SDS011;1571;52.524;14.104;2023-06-14T00:42:50;5.07;;;3.30;;
3121;SDS011;1571;52.524;14.104;2023-06-14T00:45:18;3.53;;;3.03;;
3121;SDS011;1571;52.524;14.104;2023-06-14T00:47:46;3.90;;;3.60;;
3121;SDS011;1571;52.524;14.104;2023-06-14T00:50:17;4.60;;;4.20;;
3121;SDS011;1571;52.524;14.104;2023-06-14T00:52:46;4.00;;;3.60;;
3121;SDS011;1571;52.524;14.104;2023-06-14T00:55:14;3.53;;;2.97;;
3121;SDS011;1571;52.524;14.104;2023-06-14T00:57:43;4.80;;;4.40;;
3121;SDS011;1571;52.524;14.104;2023-06-14T01:00:13;3.93;;;3.63;;
3121;SDS011;1571;52.524;14.104;2023-06-14T01:02:42;4.77;;;4.37;;
3121;SDS011;1571;52.524;14.104;2023-06-14T01:05:11;4.30;;;3.97;;
3121;SDS011;1571;52.524;14.104;2023-06-14T01:07:46;5.67;;;4.20;;
3121;SDS011;1571;52.524;14.104;2023-06-14T01:10:30;3.73;;;3.43;;
3121;SDS011;1571;52.524;14.104;2023-06-14T01:13:05;3.90;;;3.60;;
3121;SDS011;1571;52.524;14.104;2023-06-14T01:15:38;4.10;;;3.70;;
3121;SDS011;1571;52.524;14.104;2023-06-14T01:18:09;5.50;;;4.90;;
3121;SDS011;1571;52.524;14.104;2023-06-14T01:20:45;6.23;;;3.77;;
3121;SDS011;1571;52.524;14.104;2023-06-14T01:23:18;5.80;;;4.10;;
3121;SDS011;1571;52.524;14.104;2023-06-14T01:25:49;4.83;;;4.43;;
3121;SDS011;1571;52.524;14.104;2023-06-14T01:28:20;4.80;;;4.33;;
3121;SDS011;1571;52.524;14.104;2023-06-14T01:30:50;4.23;;;3.93;;
3121;SDS011;1571;52.524;14.104;2023-06-14T01:33:21;3.90;;;3.53;;
3121;SDS011;1571;52.524;14.104;2023-06-14T01:35:51;4.53;;;4.13;;
3121;SDS011;1571;52.524;14.104;2023-06-14T01:38:21;5.10;;;4.60;;
3121;SDS011;1571;52.524;14.104;2023-06-14T01:40:51;7.63;;;4.90;;
3121;SDS011;1571;52.524;14.104;2023-06-14T01:43:25;4.83;;;4.33;;
3121;SDS011;1571;52.524;14.104;2023-06-14T01:45:55;7.00;;;4.57;;
3121;SDS011;1571;52.524;14.104;2023-06-14T01:48:27;6.37;;;4.97;;
3121;SDS011;1571;52.524;14.104;2023-06-14T01:50:55;4.77;;;3.90;;
3121;SDS011;1571;52.524;14.104;2023-06-14T01:53:24;5.33;;;4.80;;
3121;SDS011;1571;52.524;14.104;2023-06-14T01:55:53;4.80;;;4.30;;
3121;SDS011;1571;52.524;14.104;2023-06-14T01:58:22;5.10;;;4.60;;
3121;SDS011;1571;52.524;14.104;2023-06-14T02:00:51;4.13;;;3.83;;
3121;SDS011;1571;52.524;14.104;2023-06-14T02:03:22;7.17;;;4.37;;
3121;SDS011;1571;52.524;14.104;2023-06-14T02:05:52;5.37;;;4.97;;
3121;SDS011;1571;52.524;14.104;2023-06-14T02:08:21;4.87;;;4.47;;
3121;SDS011;1571;52.524;14.104;2023-06-14T02:10:51;5.23;;;4.40;;
3121;SDS011;1571;52.524;14.104;2023-06-14T02:13:21;4.57;;;4.17;;
3121;SDS011;1571;52.524;14.104;2023-06-14T02:15:50;5.13;;;4.73;;
3121;SDS011;1571;52.524;14.104;2023-06-14T02:18:22;4.83;;;4.33;;
3121;SDS011;1571;52.524;14.104;2023-06-14T02:20:51;5.60;;;4.47;;
3121;SDS011;1571;52.524;14.104;2023-06-14T02:23:19;5.53;;;4.23;;
3121;SDS011;1571;52.524;14.104;2023-06-14T02:25:48;4.93;;;4.03;;
3121;SDS011;1571;52.524;14.104;2023-06-14T02:28:17;8.33;;;5.30;;
3121;SDS011;1571;52.524;14.104;2023-06-14T02:30:45;4.03;;;3.73;;
3121;SDS011;1571;52.524;14.104;2023-06-14T02:33:14;4.40;;;3.73;;
3121;SDS011;1571;52.524;14.104;2023-06-14T02:35:42;5.60;;;5.20;;
3121;SDS011;1571;52.524;14.104;2023-06-14T02:38:10;5.57;;;5.00;;
3121;SDS011;1571;52.524;14.104;2023-06-14T02:40:40;4.53;;;4.13;;
3121;SDS011;1571;52.524;14.104;2023-06-14T02:43:09;6.70;;;4.07;;
3121;SDS011;1571;52.524;14.104;2023-06-14T02:45:40;6.13;;;4.37;;
3121;SDS011;1571;52.524;14.104;2023-06-14T02:48:08;5.33;;;4.43;;
3121;SDS011;1571;52.524;14.104;2023-06-14T02:50:37;5.13;;;4.67;;
3121;SDS011;1571;52.524;14.104;2023-06-14T02:53:05;5.50;;;5.00;;
3121;SDS011;1571;52.524;14.104;2023-06-14T02:55:34;4.73;;;4.33;;
3121;SDS011;1571;52.524;14.104;2023-06-14T02:58:07;4.13;;;3.83;;
3121;SDS011;1571;52.524;14.104;2023-06-14T03:00:35;4.27;;;3.97;;
3121;SDS011;1571;52.524;14.104;2023-06-14T03:03:07;3.60;;;3.30;;
3121;SDS011;1571;52.524;14.104;2023-06-14T03:05:46;5.47;;;5.00;;
3121;SDS011;1571;52.524;14.104;2023-06-14T03:08:20;5.47;;;5.00;;
3121;SDS011;1571;52.524;14.104;2023-06-14T03:10:55;5.20;;;4.80;;
3121;SDS011;1571;52.524;14.104;2023-06-14T03:13:25;5.83;;;5.33;;
3121;SDS011;1571;52.524;14.104;2023-06-14T03:15:54;5.90;;;5.40;;
3121;SDS011;1571;52.524;14.104;2023-06-14T03:18:24;7.80;;;5.10;;
3121;SDS011;1571;52.524;14.104;2023-06-14T03:20:55;6.63;;;6.03;;
3121;SDS011;1571;52.524;14.104;2023-06-14T03:23:26;7.30;;;6.50;;
3121;SDS011;1571;52.524;14.104;2023-06-14T03:25:55;11.03;;;6.40;;
3121;SDS011;1571;52.524;14.104;2023-06-14T03:28:24;5.90;;;5.30;;
3121;SDS011;1571;52.524;14.104;2023-06-14T03:30:54;6.10;;;5.50;;
3121;SDS011;1571;52.524;14.104;2023-06-14T03:33:24;6.43;;;5.83;;
3121;SDS011;1571;52.524;14.104;2023-06-14T03:35:54;5.63;;;5.13;;
3121;SDS011;1571;52.524;14.104;2023-06-14T03:38:23;4.80;;;4.50;;
3121;SDS011;1571;52.524;14.104;2023-06-14T03:40:52;7.60;;;4.77;;
3121;SDS011;1571;52.524;14.104;2023-06-14T03:43:20;5.53;;;4.77;;
3121;SDS011;1571;52.524;14.104;2023-06-14T03:45:49;5.70;;;5.00;;
3121;SDS011;1571;52.524;14.104;2023-06-14T03:48:18;7.43;;;5.40;;
3121;SDS011;1571;52.524;14.104;2023-06-14T03:50:48;5.47;;;4.40;;
3121;SDS011;1571;52.524;14.104;2023-06-14T03:53:17;7.23;;;4.83;;
3121;SDS011;1571;52.524;14.104;2023-06-14T03:55:48;9.33;;;4.73;;
3121;SDS011;1571;52.524;14.104;2023-06-14T03:58:26;5.80;;;5.20;;
3121;SDS011;1571;52.524;14.104;2023-06-14T04:00:55;6.30;;;5.80;;
3121;SDS011;1571;52.524;14.104;2023-06-14T04:03:24;9.00;;;6.13;;
3121;SDS011;1571;52.524;14.104;2023-06-14T04:05:59;6.70;;;6.10;;
3121;SDS011;1571;52.524;14.104;2023-06-14T04:08:27;6.40;;;5.80;;
3121;SDS011;1571;52.524;14.104;2023-06-14T04:10:57;7.73;;;5.67;;
3121;SDS011;1571;52.524;14.104;2023-06-14T04:13:26;7.00;;;5.17;;
3121;SDS011;1571;52.524;14.104;2023-06-14T04:15:54;6.40;;;5.53;;
3121;SDS011;1571;52.524;14.104;2023-06-14T04:18:28;6.63;;;6.03;;
3121;SDS011;1571;52.524;14.104;2023-06-14T04:20:58;6.50;;;5.90;;
3121;SDS011;1571;52.524;14.104;2023-06-14T04:23:28;6.60;;;6.00;;
3121;SDS011;1571;52.524;14.104;2023-06-14T04:25:57;7.00;;;5.60;;
3121;SDS011;1571;52.524;14.104;2023-06-14T04:28:29;5.93;;;5.30;;
3121;SDS011;1571;52.524;14.104;2023-06-14T04:31:00;5.90;;;5.40;;
3121;SDS011;1571;52.524;14.104;2023-06-14T04:33:31;7.10;;;6.20;;
3121;SDS011;1571;52.524;14.104;2023-06-14T04:36:01;6.20;;;5.70;;
3121;SDS011;1571;52.524;14.104;2023-06-14T04:38:30;6.60;;;5.90;;
3121;SDS011;1571;52.524;14.104;2023-06-14T04:41:01;6.40;;;5.90;;
3121;SDS011;1571;52.524;14.104;2023-06-14T04:43:31;6.90;;;5.37;;
3121;SDS011;1571;52.524;14.104;2023-06-14T04:46:06;6.67;;;5.80;;
3121;SDS011;1571;52.524;14.104;2023-06-14T04:51:10;11.87;;;5.30;;
3121;SDS011;1571;52.524;14.104;2023-06-14T04:53:40;6.83;;;6.23;;
3121;SDS011;1571;52.524;14.104;2023-06-14T04:56:08;10.00;;;6.20;;
3121;SDS011;1571;52.524;14.104;2023-06-14T04:58:37;7.20;;;6.50;;
3121;SDS011;1571;52.524;14.104;2023-06-14T05:01:05;7.00;;;6.40;;
3121;SDS011;1571;52.524;14.104;2023-06-14T05:03:36;8.47;;;6.27;;
3121;SDS011;1571;52.524;14.104;2023-06-14T05:06:05;8.80;;;6.37;;
3121;SDS011;1571;52.524;14.104;2023-06-14T05:08:35;8.57;;;6.03;;
3121;SDS011;1571;52.524;14.104;2023-06-14T05:11:03;6.37;;;5.83;;
3121;SDS011;1571;52.524;14.104;2023-06-14T05:13:32;6.40;;;5.83;;
3121;SDS011;1571;52.524;14.104;2023-06-14T05:16:01;12.27;;;5.60;;
3121;SDS011;1571;52.524;14.104;2023-06-14T05:18:30;6.47;;;5.63;;
3121;SDS011;1571;52.524;14.104;2023-06-14T05:21:01;6.40;;;5.80;;
3121;SDS011;1571;52.524;14.104;2023-06-14T05:23:30;6.97;;;6.03;;
3121;SDS011;1571;52.524;14.104;2023-06-14T05:26:00;8.40;;;6.30;;
3121;SDS011;1571;52.524;14.104;2023-06-14T05:28:29;5.43;;;5.03;;
3121;SDS011;1571;52.524;14.104;2023-06-14T05:30:58;13.73;;;6.63;;
3121;SDS011;1571;52.524;14.104;2023-06-14T05:33:26;6.70;;;6.00;;
3121;SDS011;1571;52.524;14.104;2023-06-14T05:35:55;6.00;;;5.50;;
3121;SDS011;1571;52.524;14.104;2023-06-14T05:38:23;5.77;;;5.37;;
3121;SDS011;1571;52.524;14.104;2023-06-14T05:40:52;5.87;;;5.43;;
3121;SDS011;1571;52.524;14.104;2023-06-14T05:43:22;8.77;;;5.70;;
3121;SDS011;1571;52.524;14.104;2023-06-14T05:45:50;5.93;;;5.37;;
3121;SDS011;1571;52.524;14.104;2023-06-14T05:48:18;9.07;;;5.63;;
3121;SDS011;1571;52.524;14.104;2023-06-14T05:50:47;5.53;;;5.00;;
3121;SDS011;1571;52.524;14.104;2023-06-14T05:53:15;6.80;;;5.80;;
3121;SDS011;1571;52.524;14.104;2023-06-14T05:55:43;20.53;;;7.13;;
3121;SDS011;1571;52.524;14.104;2023-06-14T05:58:12;6.87;;;6.27;;
3121;SDS011;1571;52.524;14.104;2023-06-14T06:00:42;6.50;;;4.93;;
3121;SDS011;1571;52.524;14.104;2023-06-14T06:03:10;8.90;;;6.47;;
3121;SDS011;1571;52.524;14.104;2023-06-14T06:05:40;6.23;;;4.90;;
3121;SDS011;1571;52.524;14.104;2023-06-14T06:08:08;5.10;;;4.70;;
3121;SDS011;1571;52.524;14.104;2023-06-14T06:10:36;7.50;;;6.80;;
3121;SDS011;1571;52.524;14.104;2023-06-14T06:13:04;8.53;;;5.70;;
3121;SDS011;1571;52.524;14.104;2023-06-14T06:15:35;6.13;;;4.70;;
3121;SDS011;1571;52.524;14.104;2023-06-14T06:18:05;6.60;;;5.77;;
3121;SDS011;1571;52.524;14.104;2023-06-14T06:20:33;8.37;;;5.40;;
3121;SDS011;1571;52.524;14.104;2023-06-14T06:23:03;8.40;;;5.30;;
3121;SDS011;1571;52.524;14.104;2023-06-14T06:25:31;8.20;;;4.97;;
3121;SDS011;1571;52.524;14.104;2023-06-14T06:27:59;6.07;;;5.47;;
3121;SDS011;1571;52.524;14.104;2023-06-14T06:30:28;7.23;;;5.63;;
3121;SDS011;1571;52.524;14.104;2023-06-14T06:32:56;12.97;;;5.80;;
3121;SDS011;1571;52.524;14.104;2023-06-14T06:35:27;8.70;;;4.90;;
3121;SDS011;1571;52.524;14.104;2023-06-14T06:37:56;5.90;;;5.37;;
3121;SDS011;1571;52.524;14.104;2023-06-14T06:40:25;5.87;;;4.33;;
3121;SDS011;1571;52.524;14.104;2023-06-14T06:42:53;5.90;;;5.30;;
3121;SDS011;1571;52.524;14.104;2023-06-14T06:45:21;5.83;;;5.00;;
3121;SDS011;1571;52.524;14.104;2023-06-14T06:47:51;5.07;;;4.67;;
3121;SDS011;1571;52.524;14.104;2023-06-14T06:50:20;5.30;;;4.90;;
3121;SDS011;1571;52.524;14.104;2023-06-14T06:52:51;7.07;;;5.50;;
3121;SDS011;1571;52.524;14.104;2023-06-14T06:55:20;5.57;;;5.17;;
3121;SDS011;1571;52.524;14.104;2023-06-14T06:57:48;8.40;;;5.10;;
3121;SDS011;1571;52.524;14.104;2023-06-14T07:00:19;7.20;;;6.50;;
3121;SDS011;1571;52.524;14.104;2023-06-14T07:02:48;7.70;;;5.27;;
3121;SDS011;1571;52.524;14.104;2023-06-14T07:05:16;4.50;;;4.20;;
3121;SDS011;1571;52.524;14.104;2023-06-14T07:07:45;8.60;;;5.53;;
3121;SDS011;1571;52.524;14.104;2023-06-14T07:10:14;6.80;;;5.30;;
3121;SDS011;1571;52.524;14.104;2023-06-14T07:12:43;5.83;;;5.30;;
3121;SDS011;1571;52.524;14.104;2023-06-14T07:15:11;7.23;;;5.63;;
3121;SDS011;1571;52.524;14.104;2023-06-14T07:17:41;5.87;;;5.37;;
3121;SDS011;1571;52.524;14.104;2023-06-14T07:20:09;5.60;;;4.60;;
3121;SDS011;1571;52.524;14.104;2023-06-14T07:22:41;7.00;;;5.63;;
3121;SDS011;1571;52.524;14.104;2023-06-14T07:25:10;5.10;;;4.70;;
3121;SDS011;1571;52.524;14.104;2023-06-14T07:27:43;8.40;;;5.50;;
3121;SDS011;1571;52.524;14.104;2023-06-14T07:30:12;7.10;;;5.37;;
3121;SDS011;1571;52.524;14.104;2023-06-14T07:32:41;4.97;;;4.33;;
3121;SDS011;1571;52.524;14.104;2023-06-14T07:35:10;5.67;;;5.10;;
3121;SDS011;1571;52.524;14.104;2023-06-14T07:37:38;5.10;;;4.70;;
3121;SDS011;1571;52.524;14.104;2023-06-14T07:40:07;8.27;;;4.90;;
3121;SDS011;1571;52.524;14.104;2023-06-14T07:42:37;4.17;;;3.87;;
3121;SDS011;1571;52.524;14.104;2023-06-14T07:45:07;5.37;;;4.87;;
3121;SDS011;1571;52.524;14.104;2023-06-14T07:47:36;5.00;;;4.60;;
3121;SDS011;1571;52.524;14.104;2023-06-14T07:50:05;9.23;;;3.77;;
3121;SDS011;1571;52.524;14.104;2023-06-14T07:52:36;4.83;;;4.43;;
3121;SDS011;1571;52.524;14.104;2023-06-14T07:55:04;4.67;;;4.23;;
3121;SDS011;1571;52.524;14.104;2023-06-14T07:57:33;4.80;;;4.40;;
3121;SDS011;1571;52.524;14.104;2023-06-14T08:00:02;4.90;;;4.33;;
3121;SDS011;1571;52.524;14.104;2023-06-14T08:02:39;9.67;;;5.47;;
3121;SDS011;1571;52.524;14.104;2023-06-14T08:05:08;4.73;;;4.23;;
3121;SDS011;1571;52.524;14.104;2023-06-14T08:07:37;5.77;;;4.33;;
3121;SDS011;1571;52.524;14.104;2023-06-14T08:10:06;5.77;;;5.27;;
3121;SDS011;1571;52.524;14.104;2023-06-14T08:12:35;4.77;;;4.27;;
3121;SDS011;1571;52.524;14.104;2023-06-14T08:15:05;6.10;;;4.83;;
3121;SDS011;1571;52.524;14.104;2023-06-14T08:17:43;5.23;;;4.73;;
3121;SDS011;1571;52.524;14.104;2023-06-14T08:20:12;4.93;;;4.53;;
3121;SDS011;1571;52.524;14.104;2023-06-14T08:22:43;5.27;;;4.87;;
3121;SDS011;1571;52.524;14.104;2023-06-14T08:25:13;4.20;;;3.83;;
3121;SDS011;1571;52.524;14.104;2023-06-14T08:27:42;5.10;;;3.97;;
3121;SDS011;1571;52.524;14.104;2023-06-14T08:30:11;4.03;;;3.73;;
3121;SDS011;1571;52.524;14.104;2023-06-14T08:32:40;6.03;;;3.30;;
3121;SDS011;1571;52.524;14.104;2023-06-14T08:35:09;3.23;;;3.03;;
3121;SDS011;1571;52.524;14.104;2023-06-14T08:37:39;7.90;;;3.83;;
3121;SDS011;1571;52.524;14.104;2023-06-14T08:40:16;5.40;;;3.50;;
3121;SDS011;1571;52.524;14.104;2023-06-14T08:42:47;3.70;;;3.10;;
3121;SDS011;1571;52.524;14.104;2023-06-14T08:45:19;3.67;;;3.33;;
3121;SDS011;1571;52.524;14.104;2023-06-14T08:47:53;3.07;;;2.77;;
3121;SDS011;1571;52.524;14.104;2023-06-14T08:50:27;2.87;;;2.37;;
3121;SDS011;1571;52.524;14.104;2023-06-14T08:52:59;6.67;;;2.30;;
3121;SDS011;1571;52.524;14.104;2023-06-14T08:55:31;3.00;;;2.57;;
3121;SDS011;1571;52.524;14.104;2023-06-14T08:58:03;5.57;;;3.33;;
3121;SDS011;1571;52.524;14.104;2023-06-14T09:00:32;3.00;;;2.67;;
3121;SDS011;1571;52.524;14.104;2023-06-14T09:03:01;5.60;;;3.20;;
3121;SDS011;1571;52.524;14.104;2023-06-14T09:05:32;3.57;;;2.60;;
3121;SDS011;1571;52.524;14.104;2023-06-14T09:08:01;3.10;;;2.87;;
3121;SDS011;1571;52.524;14.104;2023-06-14T09:10:32;3.57;;;2.87;;
3121;SDS011;1571;52.524;14.104;2023-06-14T09:13:02;3.80;;;3.47;;
3121;SDS011;1571;52.524;14.104;2023-06-14T09:15:31;4.67;;;3.57;;
3121;SDS011;1571;52.524;14.104;2023-06-14T09:18:00;6.33;;;4.17;;
3121;SDS011;1571;52.524;14.104;2023-06-14T09:20:31;3.40;;;2.90;;
3121;SDS011;1571;52.524;14.104;2023-06-14T09:23:00;3.30;;;3.00;;
3121;SDS011;1571;52.524;14.104;2023-06-14T09:25:28;3.67;;;3.37;;
3121;SDS011;1571;52.524;14.104;2023-06-14T09:28:06;5.60;;;3.20;;
3121;SDS011;1571;52.524;14.104;2023-06-14T09:30:35;3.30;;;3.10;;
3121;SDS011;1571;52.524;14.104;2023-06-14T09:33:05;4.90;;;3.10;;
3121;SDS011;1571;52.524;14.104;2023-06-14T09:35:34;3.47;;;3.17;;
3121;SDS011;1571;52.524;14.104;2023-06-14T09:38:03;2.83;;;2.63;;
3121;SDS011;1571;52.524;14.104;2023-06-14T09:40:34;4.93;;;3.37;;
3121;SDS011;1571;52.524;14.104;2023-06-14T09:43:06;5.47;;;4.27;;
3121;SDS011;1571;52.524;14.104;2023-06-14T09:45:37;4.73;;;3.43;;
3121;SDS011;1571;52.524;14.104;2023-06-14T09:48:07;3.43;;;3.13;;
3121;SDS011;1571;52.524;14.104;2023-06-14T09:50:38;3.00;;;2.73;;
3121;SDS011;1571;52.524;14.104;2023-06-14T09:53:07;3.13;;;2.83;;
3121;SDS011;1571;52.524;14.104;2023-06-14T09:55:40;3.90;;;3.50;;
3121;SDS011;1571;52.524;14.104;2023-06-14T09:58:10;4.00;;;2.83;;
3121;SDS011;1571;52.524;14.104;2023-06-14T10:00:39;5.93;;;3.20;;
3121;SDS011;1571;52.524;14.104;2023-06-14T10:03:12;4.10;;;3.70;;
3121;SDS011;1571;52.524;14.104;2023-06-14T10:05:43;2.93;;;2.73;;
3121;SDS011;1571;52.524;14.104;2023-06-14T10:08:14;7.33;;;3.10;;
3121;SDS011;1571;52.524;14.104;2023-06-14T10:10:44;3.90;;;3.60;;
3121;SDS011;1571;52.524;14.104;2023-06-14T10:13:12;2.60;;;2.30;;
3121;SDS011;1571;52.524;14.104;2023-06-14T10:15:50;4.00;;;3.40;;
3121;SDS011;1571;52.524;14.104;2023-06-14T10:18:29;3.67;;;3.37;;
3121;SDS011;1571;52.524;14.104;2023-06-14T10:21:04;2.67;;;2.40;;
3121;SDS011;1571;52.524;14.104;2023-06-14T10:23:41;3.30;;;3.00;;
3121;SDS011;1571;52.524;14.104;2023-06-14T10:26:17;5.90;;;2.87;;
3121;SDS011;1571;52.524;14.104;2023-06-14T10:28:58;5.60;;;3.87;;
3121;SDS011;1571;52.524;14.104;2023-06-14T10:31:41;3.80;;;3.37;;
3121;SDS011;1571;52.524;14.104;2023-06-14T10:34:10;6.10;;;3.50;;
3121;SDS011;1571;52.524;14.104;2023-06-14T10:36:41;5.93;;;3.33;;
3121;SDS011;1571;52.524;14.104;2023-06-14T10:39:12;3.30;;;2.60;;
3121;SDS011;1571;52.524;14.104;2023-06-14T10:41:50;6.97;;;3.20;;
3121;SDS011;1571;52.524;14.104;2023-06-14T10:44:39;3.87;;;3.20;;
3121;SDS011;1571;52.524;14.104;2023-06-14T10:47:20;5.33;;;3.23;;
3121;SDS011;1571;52.524;14.104;2023-06-14T10:49:51;3.20;;;2.90;;
3121;SDS011;1571;52.524;14.104;2023-06-14T10:52:27;5.23;;;2.80;;
3121;SDS011;1571;52.524;14.104;2023-06-14T10:55:00;5.90;;;3.13;;
3121;SDS011;1571;52.524;14.104;2023-06-14T10:57:39;3.90;;;2.90;;
3121;SDS011;1571;52.524;14.104;2023-06-14T11:00:12;4.37;;;3.83;;
3121;SDS011;1571;52.524;14.104;2023-06-14T11:02:52;3.07;;;2.87;;
3121;SDS011;1571;52.524;14.104;2023-06-14T11:05:48;2.90;;;2.70;;
3121;SDS011;1571;52.524;14.104;2023-06-14T11:08:32;3.33;;;3.07;;
3121;SDS011;1571;52.524;14.104;2023-06-14T11:11:12;8.00;;;3.97;;
3121;SDS011;1571;52.524;14.104;2023-06-14T11:13:45;2.83;;;2.60;;
3121;SDS011;1571;52.524;14.104;2023-06-14T11:16:16;2.70;;;2.60;;
3121;SDS011;1571;52.524;14.104;2023-06-14T11:18:46;5.23;;;2.77;;
3121;SDS011;1571;52.524;14.104;2023-06-14T11:21:16;3.40;;;3.10;;
3121;SDS011;1571;52.524;14.104;2023-06-14T11:23:50;3.50;;;2.73;;
3121;SDS011;1571;52.524;14.104;2023-06-14T11:26:26;5.53;;;3.50;;
3121;SDS011;1571;52.524;14.104;2023-06-14T11:28:56;9.40;;;3.23;;
3121;SDS011;1571;52.524;14.104;2023-06-14T11:31:25;7.10;;;2.93;;
3121;SDS011;1571;52.524;14.104;2023-06-14T11:33:55;4.13;;;2.63;;
3121;SDS011;1571;52.524;14.104;2023-06-14T11:36:26;4.00;;;2.97;;
3121;SDS011;1571;52.524;14.104;2023-06-14T11:39:02;4.50;;;2.83;;
3121;SDS011;1571;52.524;14.104;2023-06-14T11:41:34;4.10;;;2.67;;
3121;SDS011;1571;52.524;14.104;2023-06-14T11:44:04;2.93;;;2.27;;
3121;SDS011;1571;52.524;14.104;2023-06-14T11:46:33;2.23;;;2.03;;
3121;SDS011;1571;52.524;14.104;2023-06-14T11:49:02;3.63;;;3.00;;
3121;SDS011;1571;52.524;14.104;2023-06-14T11:51:31;5.73;;;2.80;;
3121;SDS011;1571;52.524;14.104;2023-06-14T11:54:02;4.53;;;3.80;;
3121;SDS011;1571;52.524;14.104;2023-06-14T11:56:31;3.40;;;3.03;;
3121;SDS011;1571;52.524;14.104;2023-06-14T11:59:01;3.03;;;2.83;;
3121;SDS011;1571;52.524;14.104;2023-06-14T12:01:35;4.07;;;2.70;;
3121;SDS011;1571;52.524;14.104;2023-06-14T12:04:05;4.03;;;3.13;;
3121;SDS011;1571;52.524;14.104;2023-06-14T12:06:34;5.60;;;2.90;;
3121;SDS011;1571;52.524;14.104;2023-06-14T12:09:08;4.00;;;2.20;;
3121;SDS011;1571;52.524;14.104;2023-06-14T12:11:40;4.90;;;2.60;;
3121;SDS011;1571;52.524;14.104;2023-06-14T12:14:09;2.67;;;2.20;;
3121;SDS011;1571;52.524;14.104;2023-06-14T12:16:38;3.90;;;2.10;;
3121;SDS011;1571;52.524;14.104;2023-06-14T12:19:09;2.87;;;2.67;;
3121;SDS011;1571;52.524;14.104;2023-06-14T12:21:38;4.83;;;1.80;;
3121;SDS011;1571;52.524;14.104;2023-06-14T12:24:09;2.73;;;2.57;;
3121;SDS011;1571;52.524;14.104;2023-06-14T12:26:41;3.50;;;2.57;;
3121;SDS011;1571;52.524;14.104;2023-06-14T12:29:09;5.20;;;2.60;;
3121;SDS011;1571;52.524;14.104;2023-06-14T12:31:40;3.70;;;2.57;;
3121;SDS011;1571;52.524;14.104;2023-06-14T12:34:09;4.20;;;2.33;;
3121;SDS011;1571;52.524;14.104;2023-06-14T12:36:37;2.50;;;2.30;;
3121;SDS011;1571;52.524;14.104;2023-06-14T12:39:12;4.10;;;2.80;;
3121;SDS011;1571;52.524;14.104;2023-06-14T12:41:41;5.23;;;2.10;;
3121;SDS011;1571;52.524;14.104;2023-06-14T12:44:09;3.57;;;2.93;;
3121;SDS011;1571;52.524;14.104;2023-06-14T12:46:38;3.93;;;2.80;;
3121;SDS011;1571;52.524;14.104;2023-06-14T12:49:09;4.33;;;1.80;;
3121;SDS011;1571;52.524;14.104;2023-06-14T12:51:38;5.03;;;2.77;;
3121;SDS011;1571;52.524;14.104;2023-06-14T12:54:07;3.43;;;2.33;;
3121;SDS011;1571;52.524;14.104;2023-06-14T12:56:37;2.23;;;2.07;;
3121;SDS011;1571;52.524;14.104;2023-06-14T12:59:06;7.33;;;3.40;;
3121;SDS011;1571;52.524;14.104;2023-06-14T13:01:34;4.03;;;2.53;;
3121;SDS011;1571;52.524;14.104;2023-06-14T13:04:03;2.57;;;2.37;;
3121;SDS011;1571;52.524;14.104;2023-06-14T13:06:31;3.67;;;2.57;;
3121;SDS011;1571;52.524;14.104;2023-06-14T13:09:00;8.10;;;2.97;;
3121;SDS011;1571;52.524;14.104;2023-06-14T13:11:28;5.03;;;2.70;;
3121;SDS011;1571;52.524;14.104;2023-06-14T13:13:58;3.23;;;3.00;;
3121;SDS011;1571;52.524;14.104;2023-06-14T13:16:39;3.27;;;2.43;;
3121;SDS011;1571;52.524;14.104;2023-06-14T13:19:08;4.53;;;3.43;;
3121;SDS011;1571;52.524;14.104;2023-06-14T13:21:36;5.60;;;2.40;;
3121;SDS011;1571;52.524;14.104;2023-06-14T13:24:05;3.90;;;2.40;;
3121;SDS011;1571;52.524;14.104;2023-06-14T13:26:33;6.10;;;2.63;;
3121;SDS011;1571;52.524;14.104;2023-06-14T13:29:03;2.87;;;2.67;;
3121;SDS011;1571;52.524;14.104;2023-06-14T13:31:31;2.83;;;2.20;;
3121;SDS011;1571;52.524;14.104;2023-06-14T13:34:00;4.03;;;1.87;;
3121;SDS011;1571;52.524;14.104;2023-06-14T13:36:28;2.93;;;2.13;;
3121;SDS011;1571;52.524;14.104;2023-06-14T13:38:57;3.17;;;2.37;;
3121;SDS011;1571;52.524;14.104;2023-06-14T13:41:25;3.73;;;2.87;;
3121;SDS011;1571;52.524;14.104;2023-06-14T13:43:58;5.03;;;3.20;;
3121;SDS011;1571;52.524;14.104;2023-06-14T13:46:27;4.60;;;2.50;;
3121;SDS011;1571;52.524;14.104;2023-06-14T13:48:56;3.57;;;2.30;;
3121;SDS011;1571;52.524;14.104;2023-06-14T13:51:24;2.67;;;2.43;;
3121;SDS011;1571;52.524;14.104;2023-06-14T13:53:53;4.30;;;2.83;;
3121;SDS011;1571;52.524;14.104;2023-06-14T13:56:22;5.07;;;3.00;;
3121;SDS011;1571;52.524;14.104;2023-06-14T13:58:51;3.67;;;2.27;;
3121;SDS011;1571;52.524;14.104;2023-06-14T14:01:19;3.63;;;2.30;;
3121;SDS011;1571;52.524;14.104;2023-06-14T14:03:49;10.97;;;2.83;;
3121;SDS011;1571;52.524;14.104;2023-06-14T14:06:17;3.53;;;2.47;;
3121;SDS011;1571;52.524;14.104;2023-06-14T14:08:46;7.57;;;3.30;;
3121;SDS011;1571;52.524;14.104;2023-06-14T14:11:14;3.10;;;2.40;;
3121;SDS011;1571;52.524;14.104;2023-06-14T14:13:43;2.97;;;2.77;;
3121;SDS011;1571;52.524;14.104;2023-06-14T14:16:12;3.33;;;3.03;;
3121;SDS011;1571;52.524;14.104;2023-06-14T14:18:40;3.50;;;2.70;;
3121;SDS011;1571;52.524;14.104;2023-06-14T14:21:10;4.40;;;2.40;;
3121;SDS011;1571;52.524;14.104;2023-06-14T14:23:38;5.67;;;3.30;;
3121;SDS011;1571;52.524;14.104;2023-06-14T14:26:08;3.40;;;3.10;;
3121;SDS011;1571;52.524;14.104;2023-06-14T14:28:36;5.03;;;3.00;;
3121;SDS011;1571;52.524;14.104;2023-06-14T14:31:04;2.73;;;2.53;;
3121;SDS011;1571;52.524;14.104;2023-06-14T14:33:33;5.07;;;2.30;;
3121;SDS011;1571;52.524;14.104;2023-06-14T14:36:02;3.47;;;3.00;;
3121;SDS011;1571;52.524;14.104;2023-06-14T14:38:32;2.10;;;1.90;;
3121;SDS011;1571;52.524;14.104;2023-06-14T14:41:00;5.63;;;3.03;;
3121;SDS011;1571;52.524;14.104;2023-06-14T14:43:29;4.47;;;2.97;;
3121;SDS011;1571;52.524;14.104;2023-06-14T14:45:58;5.50;;;2.40;;
3121;SDS011;1571;52.524;14.104;2023-06-14T14:48:27;4.57;;;2.53;;
3121;SDS011;1571;52.524;14.104;2023-06-14T14:50:55;3.20;;;2.90;;
3121;SDS011;1571;52.524;14.104;2023-06-14T14:53:23;2.93;;;2.30;;
3121;SDS011;1571;52.524;14.104;2023-06-14T14:55:53;3.60;;;2.83;;
3121;SDS011;1571;52.524;14.104;2023-06-14T14:58:21;5.93;;;2.17;;
3121;SDS011;1571;52.524;14.104;2023-06-14T15:00:50;3.70;;;2.23;;
3121;SDS011;1571;52.524;14.104;2023-06-14T15:03:19;3.10;;;2.40;;
3121;SDS011;1571;52.524;14.104;2023-06-14T15:05:47;9.53;;;2.37;;
3121;SDS011;1571;52.524;14.104;2023-06-14T15:08:15;4.27;;;2.30;;
3121;SDS011;1571;52.524;14.104;2023-06-14T15:10:43;4.63;;;2.70;;
3121;SDS011;1571;52.524;14.104;2023-06-14T15:13:13;2.43;;;1.97;;
3121;SDS011;1571;52.524;14.104;2023-06-14T15:15:42;3.40;;;2.10;;
3121;SDS011;1571;52.524;14.104;2023-06-14T15:18:10;6.50;;;2.43;;
3121;SDS011;1571;52.524;14.104;2023-06-14T15:20:38;5.13;;;2.30;;